createdAt,value
2023-05-11T00:02:21.313Z,93.18
2023-05-11T00:04:51.324Z,92.58
2023-05-11T00:07:21.313Z,92.86
2023-05-11T00:09:51.298Z,92.90
2023-05-11T00:12:20.831Z,93.60
2023-05-11T00:14:51.008Z,93.15
2023-05-11T00:17:20.903Z,92.78
2023-05-11T00:19:50.850Z,92.21
2023-05-11T00:22:20.523Z,93.09
2023-05-11T00:24:50.329Z,94.07
2023-05-11T00:27:20.147Z,92.41
2023-05-11T00:29:50.237Z,92.02
2023-05-11T00:32:20.118Z,92.96
2023-05-11T00:34:50.044Z,93.97
2023-05-11T00:37:19.994Z,94.27
2023-05-11T00:39:50.088Z,94.12
2023-05-11T00:42:19.614Z,94.12
2023-05-11T00:44:49.438Z,95.51
2023-05-11T00:47:19.318Z,95.07
2023-05-11T00:49:50.775Z,94.88
2023-05-11T00:52:22.473Z,95.16
2023-05-11T00:54:52.485Z,93.74
2023-05-11T00:57:22.805Z,93.52
2023-05-11T00:59:52.617Z,94.41
2023-05-11T01:02:22.704Z,94.10
2023-05-11T01:04:52.911Z,92.23
2023-05-11T01:07:28.665Z,92.20
2023-05-11T01:09:58.983Z,93.53
2023-05-11T01:12:48.224Z,94.75
2023-05-11T01:15:26.610Z,93.70
2023-05-11T01:18:05.690Z,92.18
2023-05-11T01:20:36.485Z,93.67
2023-05-11T01:23:28.688Z,94.21
2023-05-11T01:26:04.265Z,95.58
2023-05-11T01:28:59.106Z,94.13
2023-05-11T01:31:34.762Z,94.75
2023-05-11T01:34:07.604Z,94.56
2023-05-11T01:36:40.792Z,94.98
2023-05-11T01:39:14.010Z,95.08
2023-05-11T01:41:46.719Z,94.74
2023-05-11T01:44:18.343Z,94.74
2023-05-11T01:46:50.129Z,94.20
2023-05-11T01:49:22.654Z,93.96
2023-05-11T01:51:54.517Z,93.89
2023-05-11T01:54:26.455Z,93.65
2023-05-11T01:56:58.099Z,94.34
2023-05-11T01:59:29.166Z,92.80
2023-05-11T02:02:01.165Z,93.11
2023-05-11T02:04:32.741Z,92.70
2023-05-11T02:07:03.392Z,92.01
2023-05-11T02:09:35.157Z,94.50
2023-05-11T02:12:06.839Z,92.82
2023-05-11T02:14:39.131Z,93.51
2023-05-11T02:17:11.074Z,92.83
2023-05-11T02:19:43.305Z,92.99
2023-05-11T02:22:14.431Z,93.60
2023-05-11T02:24:44.375Z,94.61
2023-05-11T02:27:14.209Z,92.79
2023-05-11T02:29:44.332Z,92.57
2023-05-11T02:32:17.231Z,92.35
2023-05-11T02:34:50.136Z,93.08
2023-05-11T02:37:23.439Z,93.24
2023-05-11T02:40:06.121Z,95.35
2023-05-11T02:42:39.301Z,93.64
2023-05-11T02:45:14.512Z,93.94
2023-05-11T02:47:49.868Z,93.67
2023-05-11T02:50:24.413Z,94.24
2023-05-11T02:52:57.642Z,94.47
2023-05-11T02:55:29.932Z,94.47
2023-05-11T02:58:00.038Z,94.25
2023-05-11T03:00:30.617Z,94.57
2023-05-11T03:03:00.616Z,94.07
2023-05-11T03:05:30.962Z,95.12
2023-05-11T03:08:01.861Z,94.66
2023-05-11T03:10:31.803Z,94.31
2023-05-11T03:13:02.469Z,94.31
2023-05-11T03:15:33.615Z,94.90
2023-05-11T03:18:05.678Z,95.08
2023-05-11T03:20:37.942Z,95.08
2023-05-11T03:23:09.395Z,96.70
2023-05-11T03:25:42.036Z,96.42
2023-05-11T03:28:15.670Z,94.54
2023-05-11T03:30:48.938Z,95.76
2023-05-11T03:33:20.973Z,95.13
2023-05-11T03:35:52.232Z,95.85
2023-05-11T03:38:24.981Z,95.79
2023-05-11T03:40:55.753Z,94.94
2023-05-11T03:43:27.865Z,96.23
2023-05-11T03:45:58.868Z,95.32
2023-05-11T03:48:28.831Z,95.46
2023-05-11T03:50:58.993Z,95.65
2023-05-11T03:53:28.946Z,95.46
2023-05-11T03:55:59.184Z,94.46
2023-05-11T03:58:28.848Z,93.99
2023-05-11T04:00:58.817Z,93.17
2023-05-11T04:03:28.778Z,93.87
2023-05-11T04:05:58.719Z,95.62
2023-05-11T04:08:28.383Z,93.10
2023-05-11T04:10:57.887Z,93.75
2023-05-11T04:13:27.751Z,93.80
2023-05-11T04:15:57.616Z,93.86
2023-05-11T04:18:27.522Z,93.11
2023-05-11T04:20:57.973Z,93.99
2023-05-11T04:23:28.414Z,93.41
2023-05-11T04:26:00.680Z,92.95
2023-05-11T04:28:30.663Z,94.24
2023-05-11T04:31:00.597Z,94.24
2023-05-11T04:33:31.400Z,93.67
2023-05-11T04:36:01.303Z,93.64
2023-05-11T04:38:31.883Z,92.68
2023-05-11T04:41:09.264Z,93.49
2023-05-11T04:43:41.380Z,93.59
2023-05-11T04:46:13.418Z,93.25
2023-05-11T04:48:44.016Z,93.28
2023-05-11T04:51:14.084Z,93.13
2023-05-11T04:53:45.950Z,93.30
2023-05-11T04:56:15.672Z,92.79
2023-05-11T04:58:45.478Z,93.99
2023-05-11T05:01:15.329Z,92.28
2023-05-11T05:03:47.023Z,92.63
2023-05-11T05:06:16.894Z,93.15
2023-05-11T05:08:46.995Z,92.66
2023-05-11T05:11:17.800Z,92.26
2023-05-11T05:13:47.992Z,91.23
2023-05-11T05:16:17.576Z,90.58
2023-05-11T05:18:47.788Z,88.57
2023-05-11T05:21:17.927Z,89.71
2023-05-11T05:23:48.044Z,90.27
2023-05-11T05:26:17.838Z,90.27
2023-05-11T05:28:49.251Z,89.00
2023-05-11T05:31:20.845Z,89.77
2023-05-11T05:33:51.421Z,87.99
2023-05-11T05:36:21.061Z,89.75
2023-05-11T05:38:51.223Z,89.26
2023-05-11T05:41:22.310Z,89.26
2023-05-11T05:43:53.958Z,89.21
2023-05-11T05:46:24.165Z,89.96
2023-05-11T05:48:54.391Z,90.50
2023-05-11T05:51:24.268Z,89.30
2023-05-11T05:53:54.765Z,88.43
2023-05-11T05:56:24.690Z,89.47
2023-05-11T05:58:54.498Z,89.49
2023-05-11T06:01:24.482Z,89.49
2023-05-11T06:03:55.812Z,88.44
2023-05-11T06:06:27.154Z,87.98
2023-05-11T06:08:57.273Z,86.91
2023-05-11T06:11:27.349Z,85.35
2023-05-11T06:13:57.198Z,85.35
2023-05-11T06:16:28.152Z,85.25
2023-05-11T06:18:58.119Z,85.40
2023-05-11T06:21:28.086Z,85.40
2023-05-11T06:23:58.292Z,84.60
2023-05-11T06:26:28.772Z,84.50
2023-05-11T06:28:58.631Z,83.72
2023-05-11T06:31:29.389Z,80.52
2023-05-11T06:33:59.356Z,79.58
2023-05-11T06:36:30.298Z,79.45
2023-05-11T06:39:00.221Z,80.68
2023-05-11T06:41:30.065Z,80.15
2023-05-11T06:44:00.646Z,81.24
2023-05-11T06:46:32.484Z,80.19
2023-05-11T06:49:02.891Z,79.29
2023-05-11T06:51:32.975Z,78.90
2023-05-11T06:54:02.818Z,77.73
2023-05-11T06:56:34.038Z,78.57
2023-05-11T06:59:05.181Z,78.92
2023-05-11T07:01:35.440Z,79.57
2023-05-11T07:04:06.005Z,78.20
2023-05-11T07:06:36.084Z,79.99
2023-05-11T07:09:06.425Z,79.99
2023-05-11T07:11:37.277Z,78.23
2023-05-11T07:14:08.348Z,79.33
2023-05-11T07:16:38.521Z,79.33
2023-05-11T07:19:09.683Z,80.92
2023-05-11T07:21:39.856Z,80.13
2023-05-11T07:24:10.664Z,79.69
2023-05-11T07:26:40.885Z,79.05
2023-05-11T07:29:11.656Z,78.36
2023-05-11T07:31:42.902Z,79.13
2023-05-11T07:34:14.839Z,78.64
2023-05-11T07:36:45.095Z,78.59
2023-05-11T07:39:16.547Z,79.70
2023-05-11T07:41:47.127Z,78.89
2023-05-11T07:44:18.466Z,79.32
2023-05-11T07:46:48.424Z,78.27
2023-05-11T07:49:22.945Z,79.71
2023-05-11T07:51:52.166Z,79.28
2023-05-11T07:54:22.134Z,80.85
2023-05-11T07:56:52.088Z,81.58
2023-05-11T07:59:22.281Z,81.50
2023-05-11T08:01:52.549Z,81.69
2023-05-11T08:04:22.456Z,82.88
2023-05-11T08:06:52.668Z,81.76
2023-05-11T08:09:23.814Z,81.33
2023-05-11T08:11:54.003Z,81.33
2023-05-11T08:14:25.168Z,81.74
2023-05-11T08:16:54.759Z,81.59
2023-05-11T08:19:24.921Z,80.23
2023-05-11T08:21:54.776Z,80.76
2023-05-11T08:24:24.885Z,80.67
2023-05-11T08:26:54.709Z,80.62
2023-05-11T08:29:26.437Z,79.43
2023-05-11T08:31:56.668Z,79.43
2023-05-11T08:34:26.426Z,78.29
2023-05-11T08:36:56.415Z,79.32
2023-05-11T08:39:43.605Z,77.42
2023-05-11T08:41:59.698Z,78.81
2023-05-11T08:44:32.867Z,76.99
2023-05-11T08:47:20.940Z,76.99
2023-05-11T08:49:37.260Z,79.09
2023-05-11T08:52:07.958Z,77.99
2023-05-11T08:54:38.278Z,78.58
2023-05-11T08:57:08.742Z,78.70
2023-05-11T08:59:39.273Z,77.40
2023-05-11T09:02:12.151Z,78.08
2023-05-11T09:04:42.987Z,77.88
2023-05-11T09:07:14.947Z,77.76
2023-05-11T09:09:46.184Z,74.78
2023-05-11T09:12:17.912Z,76.14
2023-05-11T09:14:47.790Z,73.76
2023-05-11T09:17:17.649Z,73.16
2023-05-11T09:20:09.167Z,73.85
2023-05-11T09:22:46.847Z,72.23
2023-05-11T09:25:20.017Z,71.27
2023-05-11T09:27:50.492Z,72.58
2023-05-11T09:30:24.327Z,71.36
2023-05-11T09:32:58.948Z,72.69
2023-05-11T09:35:30.669Z,70.76
2023-05-11T09:38:15.083Z,71.03
2023-05-11T09:40:56.131Z,70.43
2023-05-11T09:43:29.406Z,67.43
2023-05-11T09:46:05.003Z,70.25
2023-05-11T09:48:35.368Z,66.90
2023-05-11T09:51:07.280Z,70.13
2023-05-11T09:53:40.922Z,67.46
2023-05-11T09:56:14.064Z,66.68
2023-05-11T09:58:52.455Z,66.18
2023-05-11T10:01:30.884Z,64.47
2023-05-11T10:04:21.004Z,65.85
2023-05-11T10:06:54.379Z,65.04
2023-05-11T10:09:28.579Z,65.04
2023-05-11T10:11:58.686Z,65.85
2023-05-11T10:14:29.676Z,63.97
2023-05-11T10:17:01.476Z,62.92
2023-05-11T10:19:32.800Z,64.61
2023-05-11T10:22:05.749Z,64.38
2023-05-11T10:24:36.621Z,64.03
2023-05-11T10:27:07.056Z,63.04
2023-05-11T10:29:38.163Z,62.47
2023-05-11T10:32:09.282Z,64.02
2023-05-11T10:34:41.121Z,61.31
2023-05-11T10:37:11.587Z,63.61
2023-05-11T10:39:42.546Z,65.07
2023-05-11T10:42:27.167Z,65.07
2023-05-11T10:45:21.401Z,65.23
2023-05-11T10:48:16.475Z,66.39
2023-05-11T10:50:52.045Z,67.15
2023-05-11T10:53:24.721Z,68.59
2023-05-11T10:56:06.467Z,68.77
2023-05-11T10:58:58.213Z,67.12
2023-05-11T11:01:30.942Z,66.22
2023-05-11T11:04:09.416Z,64.86
2023-05-11T11:06:41.981Z,65.94
2023-05-11T11:09:17.231Z,65.94
2023-05-11T11:11:50.622Z,66.27
2023-05-11T11:14:20.743Z,65.12
2023-05-11T11:17:19.355Z,64.76
2023-05-11T11:19:49.563Z,64.35
2023-05-11T11:25:20.766Z,62.50
2023-05-11T11:27:53.976Z,62.94
2023-05-11T11:30:30.523Z,62.94
2023-05-11T11:33:12.601Z,62.98
2023-05-11T11:35:46.057Z,62.77
2023-05-11T11:38:18.999Z,62.81
2023-05-11T11:40:52.508Z,62.26
2023-05-11T11:43:25.356Z,63.16
2023-05-11T11:45:57.504Z,63.16
2023-05-11T11:48:35.812Z,64.55
2023-05-11T11:51:13.848Z,65.82
2023-05-11T11:53:47.013Z,64.27
2023-05-11T11:56:21.489Z,63.14
2023-05-11T11:58:54.344Z,63.36
2023-05-11T12:01:27.554Z,63.36
2023-05-11T12:04:26.197Z,63.57
2023-05-11T12:06:59.511Z,63.86
2023-05-11T12:09:29.855Z,65.39
2023-05-11T12:12:02.107Z,65.39
2023-05-11T12:14:32.434Z,67.25
2023-05-11T12:17:04.029Z,68.68
2023-05-11T12:19:34.163Z,73.12
2023-05-11T12:22:04.116Z,73.12
2023-05-11T12:24:34.497Z,76.62
2023-05-11T12:27:04.951Z,76.62
2023-05-11T12:29:34.604Z,75.31
2023-05-11T12:32:04.157Z,76.13
2023-05-11T12:34:34.204Z,77.56
2023-05-11T12:37:07.111Z,77.56
2023-05-11T12:39:37.578Z,79.61
2023-05-11T12:42:07.803Z,79.09
2023-05-11T12:44:38.144Z,78.15
2023-05-11T12:47:08.098Z,77.44
2023-05-11T12:49:38.281Z,78.24
2023-05-11T12:52:09.173Z,79.77
2023-05-11T12:54:41.748Z,80.87
2023-05-11T12:57:26.084Z,79.80
2023-05-11T13:00:16.548Z,80.83
2023-05-11T13:02:50.001Z,80.83
2023-05-11T13:05:27.360Z,81.08
2023-05-11T13:08:02.153Z,79.95
2023-05-11T13:10:32.725Z,79.95
2023-05-11T13:13:02.914Z,80.95
2023-05-11T13:15:33.264Z,80.95
2023-05-11T13:18:04.159Z,79.51
2023-05-11T13:20:35.596Z,79.74
2023-05-11T13:23:11.404Z,79.71
2023-05-11T13:25:49.720Z,81.36
2023-05-11T13:28:23.330Z,81.32
2023-05-11T13:30:54.925Z,80.42
2023-05-11T13:33:25.130Z,78.75
2023-05-11T13:35:54.957Z,77.75
2023-05-11T13:38:25.091Z,77.75
2023-05-11T13:40:54.885Z,77.99
2023-05-11T13:43:24.989Z,77.40
2023-05-11T13:45:55.777Z,78.18
2023-05-11T13:48:26.084Z,78.00
2023-05-11T13:50:55.959Z,78.96
2023-05-11T13:53:26.216Z,78.50
2023-05-11T13:55:56.105Z,79.06
2023-05-11T13:58:26.703Z,78.03
2023-05-11T14:01:07.302Z,78.03
2023-05-11T14:03:30.015Z,77.66
2023-05-11T14:06:00.012Z,76.36
2023-05-11T14:08:30.189Z,75.91
2023-05-11T14:10:59.713Z,76.53
2023-05-11T14:13:29.865Z,75.53
2023-05-11T14:15:59.714Z,75.37
2023-05-11T14:18:29.535Z,75.08
2023-05-11T14:21:00.630Z,72.53
2023-05-11T14:23:30.781Z,72.66
2023-05-11T14:26:00.636Z,71.57
2023-05-11T14:28:31.200Z,70.76
2023-05-11T14:31:01.201Z,70.53
2023-05-11T14:33:31.112Z,67.53
2023-05-11T14:36:00.970Z,67.53
2023-05-11T14:38:31.728Z,67.18
2023-05-11T14:41:03.050Z,65.89
2023-05-11T14:43:32.854Z,65.89
2023-05-11T14:46:04.325Z,64.59
2023-05-11T14:48:34.142Z,64.59
2023-05-11T14:51:04.896Z,65.26
2023-05-11T14:53:34.776Z,66.46
2023-05-11T14:56:05.047Z,68.02
2023-05-11T14:58:34.887Z,66.81
2023-05-11T15:01:05.052Z,66.87
2023-05-11T15:03:36.860Z,66.87
2023-05-11T15:06:06.855Z,66.20
2023-05-11T15:08:36.450Z,65.12
2023-05-11T15:11:06.249Z,64.64
2023-05-11T15:13:36.062Z,64.08
2023-05-11T15:16:06.298Z,66.21
2023-05-11T15:18:35.778Z,66.06
2023-05-11T15:21:06.076Z,66.90
2023-05-11T15:23:35.905Z,64.70
2023-05-11T15:26:05.895Z,65.17
2023-05-11T15:28:35.426Z,66.71
2023-05-11T15:31:04.973Z,65.74
2023-05-11T15:33:34.823Z,66.34
2023-05-11T15:36:04.816Z,66.23
2023-05-11T15:38:34.323Z,65.71
2023-05-11T15:41:04.150Z,67.40
2023-05-11T15:43:34.488Z,66.84
2023-05-11T15:46:05.004Z,66.43
2023-05-11T15:48:35.001Z,68.32
2023-05-11T15:51:04.683Z,67.82
2023-05-11T15:53:34.835Z,68.18
2023-05-11T15:56:04.705Z,68.37
2023-05-11T15:58:34.324Z,68.55
2023-05-11T16:01:04.247Z,68.73
2023-05-11T16:03:34.157Z,70.11
2023-05-11T16:06:04.280Z,68.75
2023-05-11T16:08:34.149Z,69.24
2023-05-11T16:11:03.989Z,68.85
2023-05-11T16:13:33.813Z,69.29
2023-05-11T16:16:03.642Z,67.77
2023-05-11T16:18:33.587Z,67.83
2023-05-11T16:21:03.984Z,67.88
2023-05-11T16:23:34.080Z,67.81
2023-05-11T16:26:05.655Z,67.91
2023-05-11T16:28:35.231Z,67.74
2023-05-11T16:31:05.129Z,67.01
2023-05-11T16:33:34.968Z,67.52
2023-05-11T16:36:06.435Z,66.82
2023-05-11T16:38:37.220Z,67.71
2023-05-11T16:41:07.376Z,67.83
2023-05-11T16:43:37.680Z,68.37
2023-05-11T16:46:10.268Z,67.53
2023-05-11T16:48:40.192Z,67.53
2023-05-11T16:51:10.417Z,68.02
2023-05-11T16:53:40.330Z,68.95
2023-05-11T16:56:11.778Z,70.89
2023-05-11T16:58:43.332Z,70.89
2023-05-11T17:01:13.969Z,72.50
2023-05-11T17:03:43.860Z,71.10
2023-05-11T17:06:15.741Z,71.88
2023-05-11T17:08:46.913Z,71.37
2023-05-11T17:11:17.295Z,71.37
2023-05-11T17:13:47.146Z,72.78
2023-05-11T17:16:17.791Z,73.79
2023-05-11T17:18:47.486Z,74.83
2023-05-11T17:21:17.653Z,74.45
2023-05-11T17:23:47.622Z,75.41
2023-05-11T17:26:17.466Z,74.84
2023-05-11T17:28:47.891Z,75.07
2023-05-11T17:31:18.082Z,77.56
2023-05-11T17:33:47.810Z,76.40
2023-05-11T17:36:18.609Z,77.70
2023-05-11T17:38:49.622Z,77.66
2023-05-11T17:41:19.415Z,78.22
2023-05-11T17:43:49.225Z,78.95
2023-05-11T17:46:19.243Z,78.12
2023-05-11T17:48:49.370Z,77.98
2023-05-11T17:51:20.237Z,78.46
2023-05-11T17:53:50.240Z,77.83
2023-05-11T17:56:20.190Z,78.83
2023-05-11T17:58:50.162Z,78.40
2023-05-11T18:01:21.552Z,79.50
2023-05-11T18:03:51.499Z,80.38
2023-05-11T18:06:21.562Z,80.36
2023-05-11T18:08:51.910Z,79.97
2023-05-11T18:11:22.002Z,79.98
2023-05-11T18:13:51.559Z,79.67
2023-05-11T18:16:22.204Z,80.27
2023-05-11T18:18:52.513Z,79.21
2023-05-11T18:21:22.407Z,79.99
2023-05-11T18:23:52.308Z,80.36
2023-05-11T18:26:22.172Z,82.20
2023-05-11T18:28:51.791Z,81.86
2023-05-11T18:31:22.491Z,82.82
2023-05-11T18:33:52.370Z,83.32
2023-05-11T18:36:22.173Z,83.27
2023-05-11T18:38:52.224Z,83.69
2023-05-11T18:41:22.609Z,83.54
2023-05-11T18:43:54.297Z,83.04
2023-05-11T18:46:24.157Z,82.54
2023-05-11T18:48:54.354Z,82.75
2023-05-11T18:51:25.194Z,82.92
2023-05-11T18:53:55.342Z,83.54
2023-05-11T18:56:24.832Z,84.21
2023-05-11T18:58:54.613Z,83.45
2023-05-11T19:01:28.158Z,82.56
2023-05-11T19:03:56.098Z,83.70
2023-05-11T19:06:25.628Z,84.47
2023-05-11T19:08:55.843Z,84.84
2023-05-11T19:11:25.677Z,84.17
2023-05-11T19:13:55.615Z,85.39
2023-05-11T19:16:25.453Z,85.79
2023-05-11T19:18:56.779Z,85.37
2023-05-11T19:21:26.701Z,85.37
2023-05-11T19:23:56.533Z,86.00
2023-05-11T19:26:26.419Z,86.33
2023-05-11T19:28:56.252Z,85.35
2023-05-11T19:31:27.916Z,85.00
2023-05-11T19:33:59.323Z,85.86
2023-05-11T19:36:29.703Z,85.35
2023-05-11T19:38:59.604Z,86.04
2023-05-11T19:41:29.410Z,87.00
2023-05-11T19:43:59.313Z,87.01
2023-05-11T19:46:28.969Z,87.46
2023-05-11T19:48:58.833Z,86.95
2023-05-11T19:51:28.674Z,88.32
2023-05-11T19:53:58.747Z,87.78
2023-05-11T19:56:28.677Z,88.86
2023-05-11T19:58:58.744Z,88.33
2023-05-11T20:01:28.648Z,88.50
2023-05-11T20:03:58.658Z,88.93
2023-05-11T20:06:28.883Z,87.86
2023-05-11T20:08:58.751Z,87.99
2023-05-11T20:11:30.492Z,89.19
2023-05-11T20:14:04.645Z,88.65
2023-05-11T20:16:34.825Z,86.67
2023-05-11T20:19:05.437Z,87.28
2023-05-11T20:21:36.248Z,88.20
2023-05-11T20:24:08.162Z,87.38
2023-05-11T20:26:38.204Z,87.70
2023-05-11T20:29:09.646Z,87.77
2023-05-11T20:31:39.771Z,88.18
2023-05-11T20:34:09.590Z,88.18
2023-05-11T20:36:39.455Z,87.69
2023-05-11T20:39:09.336Z,88.07
2023-05-11T20:41:39.158Z,88.07
2023-05-11T20:44:10.392Z,89.88
2023-05-11T20:46:41.397Z,89.13
2023-05-11T20:49:13.093Z,90.03
2023-05-11T20:51:43.619Z,91.21
2023-05-11T20:54:14.428Z,90.71
2023-05-11T20:56:44.650Z,90.71
2023-05-11T21:01:46.827Z,90.11
2023-05-11T21:04:16.478Z,90.69
2023-05-11T21:06:46.697Z,92.19
2023-05-11T21:09:16.952Z,92.92
2023-05-11T21:11:48.248Z,91.91
2023-05-11T21:14:18.083Z,91.91
2023-05-11T21:16:48.128Z,92.77
2023-05-11T21:19:18.441Z,92.21
2023-05-11T21:21:49.593Z,93.05
2023-05-11T21:24:20.055Z,92.01
2023-05-11T21:26:49.936Z,92.43
2023-05-11T21:29:19.826Z,93.02
2023-05-11T21:31:49.626Z,93.86
2023-05-11T21:34:19.424Z,92.28
2023-05-11T21:36:49.680Z,92.78
2023-05-11T21:39:19.470Z,92.89
2023-05-11T21:41:49.581Z,92.35
2023-05-11T21:44:19.075Z,92.07
2023-05-11T21:46:49.025Z,93.82
2023-05-11T21:49:18.860Z,94.20
2023-05-11T21:51:50.086Z,93.91
2023-05-11T21:54:22.643Z,94.28
2023-05-11T21:56:54.017Z,92.93
2023-05-11T21:59:25.472Z,92.88
2023-05-11T22:01:57.197Z,92.88
2023-05-11T22:04:27.475Z,93.08
2023-05-11T22:07:01.739Z,93.49
2023-05-11T22:09:31.942Z,93.98
2023-05-11T22:12:02.897Z,93.16
2023-05-11T22:14:32.773Z,92.81
2023-05-11T22:17:02.597Z,93.21
2023-05-11T22:19:32.137Z,92.51
2023-05-11T22:22:02.246Z,92.43
2023-05-11T22:24:32.056Z,93.22
2023-05-11T22:27:02.261Z,90.96
2023-05-11T22:29:32.144Z,90.96
2023-05-11T22:32:02.074Z,90.81
2023-05-11T22:34:31.898Z,90.94
2023-05-11T22:37:01.715Z,90.89
2023-05-11T22:39:31.780Z,91.11
2023-05-11T22:42:01.935Z,89.13
2023-05-11T22:44:31.750Z,89.13
2023-05-11T22:47:02.383Z,90.46
2023-05-11T22:49:33.422Z,90.42
2023-05-11T22:52:03.306Z,88.94
2023-05-11T22:54:33.118Z,90.59
2023-05-11T22:57:03.555Z,90.76
2023-05-11T22:59:34.605Z,91.33
2023-05-11T23:02:06.570Z,90.97
2023-05-11T23:04:36.193Z,90.20
2023-05-11T23:07:07.800Z,90.47
2023-05-11T23:09:37.706Z,90.13
2023-05-11T23:12:10.027Z,90.23
2023-05-11T23:14:39.908Z,89.73
2023-05-11T23:17:09.740Z,90.40
2023-05-11T23:19:39.747Z,90.87
2023-05-11T23:22:10.605Z,89.75
2023-05-11T23:24:40.400Z,90.88
2023-05-11T23:27:10.202Z,90.81
2023-05-11T23:29:40.195Z,90.15
2023-05-11T23:32:10.171Z,89.83
2023-05-11T23:34:40.058Z,89.61
2023-05-11T23:37:09.878Z,90.07
2023-05-11T23:39:39.855Z,90.52
2023-05-11T23:42:10.485Z,90.56
2023-05-11T23:44:40.988Z,89.49
2023-05-11T23:47:10.921Z,89.19
2023-05-11T23:49:40.935Z,90.64
2023-05-11T23:52:10.431Z,90.35
2023-05-11T23:54:40.568Z,91.82
2023-05-11T23:57:10.480Z,92.32
2023-05-11T23:59:40.279Z,91.02
